Time;durP1;ratioP1;P1;durP2;ratioP2;P2;SDS_P1;SDS_P2;PMS_P1;PMS_P2;Temp;Humidity;BMP_temperature;BMP_pressure;BME280_temperature;BME280_humidity;BME280_pressure;Samples;Min_cycle;Max_cycle;Signal;HPM_P1;HPM_P2
2022/04/29 00:02:25;;;;;;;18.07;10.93;;;;;;;;;;5073873;28;20424;-53
2022/04/29 00:04:51;;;;;;;16.17;10.47;;;;;;;;;;5074162;28;20416;-51
2022/04/29 00:07:17;;;;;;;12.13;8.70;;;;;;;;;;5074283;28;20467;-50
2022/04/29 00:09:43;;;;;;;14.30;10.50;;;;;;;;;;5074091;28;20478;-50
2022/04/29 00:12:09;;;;;;;14.80;10.00;;;;;;;;;;5073666;28;20416;-50
2022/04/29 00:14:35;;;;;;;14.00;9.60;;;;;;;;;;5074072;28;20423;-51
2022/04/29 00:17:01;;;;;;;15.00;10.47;;;;;;;;;;5074242;28;20483;-51
2022/04/29 00:19:27;;;;;;;11.53;10.40;;;;;;;;;;5073934;28;20499;-51
2022/04/29 00:21:53;;;;;;;16.80;10.87;;;;;;;;;;5073521;28;20946;-50
2022/04/29 00:24:19;;;;;;;19.47;10.60;;;;;;;;;;5073908;28;20502;-50
2022/04/29 00:26:45;;;;;;;16.20;11.70;;;;;;;;;;5074074;28;20535;-51
2022/04/29 00:29:11;;;;;;;12.70;10.50;;;;;;;;;;5073606;28;20451;-51
2022/04/29 00:31:39;;;;;;;12.00;10.03;;;;;;;;;;5073387;28;20444;-53
2022/04/29 00:34:05;;;;;;;16.93;10.07;;;;;;;;;;5073704;28;20812;-50
2022/04/29 00:36:31;;;;;;;17.33;9.50;;;;;;;;;;5073832;28;20886;-51
2022/04/29 00:38:56;;;;;;;10.47;9.30;;;;;;;;;;5073597;28;20503;-51
2022/04/29 00:41:23;;;;;;;14.17;10.43;;;;;;;;;;5073141;28;20400;-51
2022/04/29 00:44:22;;;;;;;12.33;10.20;;;;;;;;;;5073444;28;20417;-50
2022/04/29 00:46:49;;;;;;;11.93;9.70;;;;;;;;;;5061566;28;20841;-50
2022/04/29 00:49:16;;;;;;;13.90;11.20;;;;;;;;;;5072415;28;20759;-50
2022/04/29 00:51:43;;;;;;;13.83;10.87;;;;;;;;;;5072823;28;20424;-50
2022/04/29 00:54:10;;;;;;;12.57;9.90;;;;;;;;;;5073220;28;20503;-51
2022/04/29 00:56:39;;;;;;;11.63;9.43;;;;;;;;;;5073472;28;20393;-52
2022/04/29 00:59:06;;;;;;;14.67;9.50;;;;;;;;;;5073335;28;20413;-51
2022/04/29 01:01:32;;;;;;;19.30;9.40;;;;;;;;;;5071499;28;20891;-51
2022/04/29 01:04:00;;;;;;;15.10;9.67;;;;;;;;;;5071849;28;20404;-50
2022/04/29 01:06:26;;;;;;;11.90;9.70;;;;;;;;;;5072579;28;20451;-52
2022/04/29 01:08:52;;;;;;;18.43;10.53;;;;;;;;;;5072601;28;21022;-53
2022/04/29 01:11:21;;;;;;;23.27;10.90;;;;;;;;;;5072280;28;20425;-52
2022/04/29 01:13:47;;;;;;;17.17;10.90;;;;;;;;;;5072959;28;20408;-50
2022/04/29 01:16:13;;;;;;;18.80;10.83;;;;;;;;;;5071905;28;20430;-50
2022/04/29 01:18:41;;;;;;;21.77;10.90;;;;;;;;;;5072124;28;20413;-50
2022/04/29 01:21:07;;;;;;;13.27;9.43;;;;;;;;;;5071870;28;20916;-52
2022/04/29 01:23:33;;;;;;;15.50;9.87;;;;;;;;;;5072334;28;20473;-53
2022/04/29 01:25:59;;;;;;;14.33;10.93;;;;;;;;;;5072773;28;20618;-51
2022/04/29 01:28:26;;;;;;;12.10;10.23;;;;;;;;;;5072050;28;20773;-52
2022/04/29 01:30:53;;;;;;;21.20;11.03;;;;;;;;;;5071511;28;20417;-51
2022/04/29 01:33:19;;;;;;;21.63;10.47;;;;;;;;;;5071066;28;20431;-51
2022/04/29 01:35:46;;;;;;;11.90;10.53;;;;;;;;;;5072589;28;20409;-53
2022/04/29 01:38:12;;;;;;;14.83;10.30;;;;;;;;;;5072468;28;20904;-52
2022/04/29 01:40:38;;;;;;;13.23;10.17;;;;;;;;;;5072557;28;20416;-52
2022/04/29 01:43:04;;;;;;;17.87;10.70;;;;;;;;;;5071831;28;20485;-53
2022/04/29 01:45:30;;;;;;;13.93;10.40;;;;;;;;;;5072365;28;20448;-50
2022/04/29 01:47:56;;;;;;;15.23;10.30;;;;;;;;;;5072180;28;20416;-50
2022/04/29 01:50:22;;;;;;;16.10;10.30;;;;;;;;;;5072403;28;20923;-51
2022/04/29 01:52:48;;;;;;;15.83;10.93;;;;;;;;;;5071465;28;20812;-51
2022/04/29 01:55:14;;;;;;;14.43;11.00;;;;;;;;;;5072277;28;20393;-51
2022/04/29 01:57:40;;;;;;;15.37;11.40;;;;;;;;;;5072088;28;20407;-50
2022/04/29 02:00:06;;;;;;;14.50;10.37;;;;;;;;;;5071945;28;20388;-51
2022/04/29 02:02:32;;;;;;;17.67;10.97;;;;;;;;;;5071267;28;20455;-50
2022/04/29 02:04:58;;;;;;;14.50;11.17;;;;;;;;;;5072181;28;20399;-50
2022/04/29 02:07:24;;;;;;;14.53;10.37;;;;;;;;;;5071989;28;20456;-50
2022/04/29 02:09:50;;;;;;;16.67;10.30;;;;;;;;;;5071970;28;20411;-51
2022/04/29 02:12:17;;;;;;;23.13;11.47;;;;;;;;;;5071292;28;20432;-51
2022/04/29 02:14:43;;;;;;;14.50;10.67;;;;;;;;;;5071383;28;20966;-50
2022/04/29 02:17:11;;;;;;;12.40;9.93;;;;;;;;;;5071407;28;20428;-50
2022/04/29 02:19:37;;;;;;;18.33;12.10;;;;;;;;;;5071654;28;20412;-53
2022/04/29 02:22:04;;;;;;;19.33;11.23;;;;;;;;;;5071165;28;21003;-51
2022/04/29 02:24:30;;;;;;;11.03;9.60;;;;;;;;;;5072100;28;20407;-51
2022/04/29 02:26:59;;;;;;;14.23;10.37;;;;;;;;;;5071642;28;21009;-51
2022/04/29 02:29:25;;;;;;;14.07;10.20;;;;;;;;;;5071759;28;20873;-50
2022/04/29 02:31:52;;;;;;;16.17;10.93;;;;;;;;;;5070290;28;20936;-50
2022/04/29 02:34:18;;;;;;;16.30;10.50;;;;;;;;;;5071867;28;20432;-50
2022/04/29 02:36:44;;;;;;;18.17;10.50;;;;;;;;;;5071645;28;20862;-51
2022/04/29 02:39:10;;;;;;;13.70;11.60;;;;;;;;;;5071728;28;20446;-51
2022/04/29 02:41:40;;;;;;;10.60;9.50;;;;;;;;;;5070938;28;20447;-52
2022/04/29 02:44:06;;;;;;;13.57;8.60;;;;;;;;;;5071860;28;20487;-50
2022/04/29 02:46:33;;;;;;;14.93;9.37;;;;;;;;;;5071310;28;20456;-50
2022/04/29 02:48:59;;;;;;;19.87;9.60;;;;;;;;;;5070957;28;20412;-53
2022/04/29 02:51:25;;;;;;;13.03;9.57;;;;;;;;;;5062937;28;20576;-50
2022/04/29 02:53:51;;;;;;;11.70;9.00;;;;;;;;;;5071288;28;20423;-50
2022/04/29 02:56:17;;;;;;;16.40;9.20;;;;;;;;;;5071486;28;20749;-50
2022/04/29 02:58:43;;;;;;;9.83;7.70;;;;;;;;;;5072092;28;20484;-52
2022/04/29 03:01:09;;;;;;;9.13;8.13;;;;;;;;;;5069862;28;20410;-53
2022/04/29 03:03:35;;;;;;;11.10;9.13;;;;;;;;;;5071263;28;20447;-53
2022/04/29 03:06:01;;;;;;;15.30;9.50;;;;;;;;;;5071546;28;20938;-54
2022/04/29 03:08:28;;;;;;;19.27;9.10;;;;;;;;;;5071234;28;20480;-54
2022/04/29 03:10:54;;;;;;;10.70;8.30;;;;;;;;;;5070790;28;20396;-54
2022/04/29 03:13:20;;;;;;;12.17;8.57;;;;;;;;;;5073806;28;20784;-54
2022/04/29 03:15:46;;;;;;;13.10;8.30;;;;;;;;;;5075309;28;20410;-53
2022/04/29 03:18:18;;;;;;;10.67;7.43;;;;;;;;;;5075129;28;20435;-53
2022/04/29 03:20:44;;;;;;;8.93;7.63;;;;;;;;;;5074905;28;20921;-50
2022/04/29 03:23:11;;;;;;;12.37;7.60;;;;;;;;;;5074732;28;20431;-54
2022/04/29 03:25:37;;;;;;;11.63;8.87;;;;;;;;;;5075106;28;20461;-54
2022/04/29 03:28:05;;;;;;;15.80;8.50;;;;;;;;;;5074910;28;20493;-54
2022/04/29 03:30:31;;;;;;;12.20;7.87;;;;;;;;;;5074953;28;20426;-54
2022/04/29 03:32:58;;;;;;;10.93;8.00;;;;;;;;;;5073205;28;20426;-54
2022/04/29 03:35:24;;;;;;;12.87;7.83;;;;;;;;;;5073476;28;20418;-53
2022/04/29 03:37:52;;;;;;;9.97;8.00;;;;;;;;;;5075111;28;20395;-54
2022/04/29 03:40:21;;;;;;;13.13;8.80;;;;;;;;;;5074480;28;20422;-54
2022/04/29 03:42:51;;;;;;;12.00;7.80;;;;;;;;;;5074066;28;20419;-54
2022/04/29 03:45:17;;;;;;;13.57;8.50;;;;;;;;;;5073933;28;20987;-52
2022/04/29 03:47:43;;;;;;;12.47;8.50;;;;;;;;;;5074693;28;20463;-54
2022/04/29 03:50:10;;;;;;;15.43;8.93;;;;;;;;;;5074010;28;20414;-53
2022/04/29 03:52:51;;;;;;;11.73;8.27;;;;;;;;;;5073872;28;20963;-54
2022/04/29 03:55:21;;;;;;;9.53;8.33;;;;;;;;;;5074351;28;20417;-53
2022/04/29 03:57:47;;;;;;;12.97;7.27;;;;;;;;;;5074620;28;20450;-53
2022/04/29 04:00:13;;;;;;;16.67;9.57;;;;;;;;;;5074211;28;20824;-55
2022/04/29 04:02:39;;;;;;;9.83;7.80;;;;;;;;;;5073733;28;20449;-53
2022/04/29 04:05:06;;;;;;;10.13;8.30;;;;;;;;;;5074392;28;20467;-53
2022/04/29 04:07:32;;;;;;;10.40;8.33;;;;;;;;;;5074307;28;20509;-53
2022/04/29 04:09:58;;;;;;;10.00;7.80;;;;;;;;;;5074164;28;21077;-54
2022/04/29 04:12:24;;;;;;;11.17;8.60;;;;;;;;;;5072919;28;20467;-54
2022/04/29 04:14:51;;;;;;;13.83;8.20;;;;;;;;;;5073835;28;20861;-54
2022/04/29 04:17:17;;;;;;;13.50;8.17;;;;;;;;;;5074179;28;21078;-53
2022/04/29 04:19:43;;;;;;;12.73;8.03;;;;;;;;;;5073761;28;20435;-54
2022/04/29 04:22:09;;;;;;;11.37;8.00;;;;;;;;;;5073478;28;21113;-53
2022/04/29 04:24:35;;;;;;;9.50;7.43;;;;;;;;;;5073642;28;20506;-52
2022/04/29 04:27:01;;;;;;;11.10;7.80;;;;;;;;;;5073585;28;20560;-54
2022/04/29 04:29:27;;;;;;;11.00;7.50;;;;;;;;;;5073499;28;20408;-53
2022/04/29 04:31:53;;;;;;;10.43;7.70;;;;;;;;;;5072221;28;20424;-54
2022/04/29 04:37:07;;;;;;;12.00;7.90;;;;;;;;;;5073669;28;20545;-54
2022/04/29 04:39:33;;;;;;;20.77;7.97;;;;;;;;;;5073627;28;20409;-53
2022/04/29 04:41:59;;;;;;;11.50;8.30;;;;;;;;;;5072947;28;20426;-52
2022/04/29 04:44:25;;;;;;;11.40;8.60;;;;;;;;;;5073700;28;20406;-54
2022/04/29 04:46:51;;;;;;;9.93;8.03;;;;;;;;;;5073692;28;20454;-53
2022/04/29 04:49:17;;;;;;;11.80;6.93;;;;;;;;;;5073632;28;20535;-54
2022/04/29 04:51:43;;;;;;;14.40;7.30;;;;;;;;;;5072950;28;20458;-52
2022/04/29 04:54:09;;;;;;;8.43;6.70;;;;;;;;;;5073518;28;20414;-53
2022/04/29 04:56:35;;;;;;;10.90;6.97;;;;;;;;;;5073459;28;20417;-54
2022/04/29 04:59:00;;;;;;;10.13;7.40;;;;;;;;;;5073354;28;20405;-52
2022/04/29 05:01:26;;;;;;;16.33;7.87;;;;;;;;;;5072673;28;20416;-53
2022/04/29 05:03:52;;;;;;;18.60;8.70;;;;;;;;;;5073390;28;20408;-53
2022/04/29 05:06:19;;;;;;;14.47;8.67;;;;;;;;;;5073289;28;20458;-54
2022/04/29 05:08:44;;;;;;;11.60;7.80;;;;;;;;;;5073256;28;20395;-53
2022/04/29 05:11:10;;;;;;;11.70;6.90;;;;;;;;;;5072795;28;20495;-53
2022/04/29 05:13:36;;;;;;;18.07;8.23;;;;;;;;;;5073048;28;20445;-53
2022/04/29 05:16:02;;;;;;;13.10;7.30;;;;;;;;;;5073167;28;20480;-54
2022/04/29 05:18:28;;;;;;;13.33;7.90;;;;;;;;;;5073085;28;20439;-53
2022/04/29 05:20:54;;;;;;;10.33;7.30;;;;;;;;;;5072295;28;20417;-53
2022/04/29 05:23:20;;;;;;;10.80;7.87;;;;;;;;;;5072848;28;20461;-53
2022/04/29 05:25:46;;;;;;;11.80;7.97;;;;;;;;;;5072793;28;20458;-53
2022/04/29 05:28:12;;;;;;;14.60;7.17;;;;;;;;;;5072842;28;20500;-52
2022/04/29 05:30:39;;;;;;;10.83;6.83;;;;;;;;;;5071888;28;21067;-53
2022/04/29 05:33:06;;;;;;;13.73;7.53;;;;;;;;;;5070605;28;20419;-52
2022/04/29 05:35:33;;;;;;;9.90;7.60;;;;;;;;;;5071789;28;20405;-53
2022/04/29 05:38:00;;;;;;;10.67;7.40;;;;;;;;;;5072242;28;20499;-53
2022/04/29 05:43:11;;;;;;;10.13;7.13;;;;;;;;;;5071742;28;20435;-53
2022/04/29 05:45:37;;;;;;;9.87;7.10;;;;;;;;;;5072076;28;20411;-53
2022/04/29 05:48:03;;;;;;;17.60;8.63;;;;;;;;;;5071998;28;20410;-53
2022/04/29 05:50:29;;;;;;;12.47;7.50;;;;;;;;;;5071731;28;20401;-54
2022/04/29 05:52:55;;;;;;;15.63;8.00;;;;;;;;;;5071525;28;20470;-54
2022/04/29 05:55:22;;;;;;;11.17;8.07;;;;;;;;;;5072389;28;20404;-53
2022/04/29 05:57:48;;;;;;;20.67;8.17;;;;;;;;;;5072346;28;20409;-53
2022/04/29 06:00:15;;;;;;;13.00;7.90;;;;;;;;;;5071384;28;20400;-54
2022/04/29 06:02:41;;;;;;;15.23;9.10;;;;;;;;;;5070975;28;20431;-53
2022/04/29 06:05:07;;;;;;;14.57;8.30;;;;;;;;;;5071655;28;20493;-52
2022/04/29 06:07:33;;;;;;;12.90;7.50;;;;;;;;;;5071692;28;20546;-54
2022/04/29 06:09:59;;;;;;;13.40;7.90;;;;;;;;;;5072160;28;20435;-54
2022/04/29 06:12:26;;;;;;;10.03;8.13;;;;;;;;;;5071424;28;20420;-53
2022/04/29 06:14:52;;;;;;;15.93;9.63;;;;;;;;;;5072016;28;20393;-53
2022/04/29 06:17:18;;;;;;;19.70;8.47;;;;;;;;;;5072049;28;20428;-53
2022/04/29 06:19:44;;;;;;;14.70;8.70;;;;;;;;;;5071903;28;20889;-54
2022/04/29 06:22:10;;;;;;;19.07;10.23;;;;;;;;;;5071285;28;20775;-53
2022/04/29 06:24:37;;;;;;;16.03;8.77;;;;;;;;;;5072007;28;20792;-54
2022/04/29 06:27:03;;;;;;;16.70;9.20;;;;;;;;;;5071873;28;20460;-53
2022/04/29 06:29:29;;;;;;;14.93;9.50;;;;;;;;;;5071858;28;20442;-53
2022/04/29 06:31:55;;;;;;;14.80;8.83;;;;;;;;;;5070228;28;20472;-53
2022/04/29 06:34:21;;;;;;;15.73;8.93;;;;;;;;;;5071890;28;20396;-53
2022/04/29 06:36:47;;;;;;;20.13;10.70;;;;;;;;;;5071968;28;21114;-54
2022/04/29 06:39:13;;;;;;;14.10;8.70;;;;;;;;;;5071793;28;20404;-54
2022/04/29 06:41:40;;;;;;;14.07;8.67;;;;;;;;;;5071065;28;20494;-54
2022/04/29 06:44:06;;;;;;;11.90;9.10;;;;;;;;;;5071857;28;20469;-54
2022/04/29 06:46:32;;;;;;;14.80;9.43;;;;;;;;;;5071934;28;20980;-54
2022/04/29 06:48:58;;;;;;;14.53;9.07;;;;;;;;;;5075638;28;20440;-53
2022/04/29 06:51:25;;;;;;;26.73;9.70;;;;;;;;;;5075151;28;20478;-54
2022/04/29 06:53:51;;;;;;;15.30;9.67;;;;;;;;;;5075916;28;20474;-54
2022/04/29 06:56:17;;;;;;;16.93;9.40;;;;;;;;;;5075612;28;20942;-53
2022/04/29 06:58:43;;;;;;;12.17;9.40;;;;;;;;;;5075778;28;20430;-54
2022/04/29 07:01:09;;;;;;;14.17;9.50;;;;;;;;;;5075097;28;20462;-53
2022/04/29 07:03:36;;;;;;;24.40;9.97;;;;;;;;;;5075640;28;20424;-54
2022/04/29 07:06:04;;;;;;;16.93;9.83;;;;;;;;;;5075556;28;20456;-54
2022/04/29 07:08:30;;;;;;;16.80;9.87;;;;;;;;;;5075604;28;20405;-54
2022/04/29 07:10:56;;;;;;;12.20;8.97;;;;;;;;;;5074807;28;20405;-54
2022/04/29 07:13:22;;;;;;;16.10;9.30;;;;;;;;;;5075386;28;20964;-53
2022/04/29 07:15:49;;;;;;;20.87;10.20;;;;;;;;;;5075470;28;20457;-52
2022/04/29 07:18:15;;;;;;;21.50;10.37;;;;;;;;;;5075455;28;20915;-54
2022/04/29 07:20:41;;;;;;;16.33;9.47;;;;;;;;;;5075227;28;20920;-54
2022/04/29 07:23:07;;;;;;;23.27;9.33;;;;;;;;;;5074670;28;20423;-54
2022/04/29 07:25:33;;;;;;;11.93;8.23;;;;;;;;;;5065048;28;20482;-55
2022/04/29 07:27:59;;;;;;;14.80;9.30;;;;;;;;;;5071873;28;20421;-53
2022/04/29 07:30:26;;;;;;;16.97;9.77;;;;;;;;;;5073279;28;20942;-53
2022/04/29 07:32:52;;;;;;;17.97;9.40;;;;;;;;;;5072430;28;20474;-54
2022/04/29 07:43:32;;;;;;;16.60;10.03;;;;;;;;;;5074891;28;20432;-53
2022/04/29 07:45:59;;;;;;;18.90;9.30;;;;;;;;;;5074679;28;20969;-55
2022/04/29 07:48:25;;;;;;;14.80;9.30;;;;;;;;;;5074696;28;20436;-52
2022/04/29 07:50:51;;;;;;;11.60;8.80;;;;;;;;;;5074095;28;20408;-54
2022/04/29 07:53:18;;;;;;;12.93;8.60;;;;;;;;;;5071562;28;20779;-54
2022/04/29 07:55:44;;;;;;;15.77;8.67;;;;;;;;;;5074619;28;20378;-55
2022/04/29 07:58:10;;;;;;;14.00;8.60;;;;;;;;;;5074234;28;20404;-55
2022/04/29 08:00:37;;;;;;;15.97;8.90;;;;;;;;;;5074499;28;20426;-54
2022/04/29 08:03:03;;;;;;;14.40;9.40;;;;;;;;;;5073830;28;20418;-54
2022/04/29 08:05:29;;;;;;;12.17;8.77;;;;;;;;;;5074465;28;20400;-54
2022/04/29 08:07:59;;;;;;;12.43;8.70;;;;;;;;;;5074441;28;20411;-55
2022/04/29 08:10:25;;;;;;;18.33;9.60;;;;;;;;;;5074246;28;20424;-55
2022/04/29 08:12:52;;;;;;;12.37;9.37;;;;;;;;;;5073690;28;20420;-54
2022/04/29 08:15:19;;;;;;;13.47;9.33;;;;;;;;;;5074408;28;20406;-55
2022/04/29 08:17:45;;;;;;;14.33;9.27;;;;;;;;;;5074324;28;20396;-54
2022/04/29 08:20:11;;;;;;;12.50;8.63;;;;;;;;;;5074205;28;20414;-54
2022/04/29 08:22:39;;;;;;;10.57;8.70;;;;;;;;;;5073615;28;20550;-54
2022/04/29 08:25:06;;;;;;;12.70;8.90;;;;;;;;;;5074132;28;20768;-54
2022/04/29 08:27:32;;;;;;;14.10;10.20;;;;;;;;;;5073993;28;20452;-55
2022/04/29 08:29:58;;;;;;;12.23;9.20;;;;;;;;;;5074129;28;20454;-54
2022/04/29 08:32:24;;;;;;;12.73;9.77;;;;;;;;;;5072415;28;20420;-55
2022/04/29 08:34:50;;;;;;;14.57;9.97;;;;;;;;;;5074031;28;20436;-54
2022/04/29 08:37:16;;;;;;;15.03;9.17;;;;;;;;;;5073958;28;20398;-54
2022/04/29 08:39:42;;;;;;;16.20;8.97;;;;;;;;;;5073791;28;20773;-54
2022/04/29 08:42:08;;;;;;;13.27;9.23;;;;;;;;;;5073267;28;20816;-54
2022/04/29 08:44:34;;;;;;;17.97;10.27;;;;;;;;;;5073860;28;20836;-54
2022/04/29 08:47:04;;;;;;;17.20;9.30;;;;;;;;;;5073705;28;20457;-53
2022/04/29 08:49:32;;;;;;;14.10;10.60;;;;;;;;;;5073546;28;20456;-55
2022/04/29 08:52:00;;;;;;;11.23;9.03;;;;;;;;;;5072850;28;20407;-54
2022/04/29 09:00:00;;;;;;;14.60;10.00;;;;;;;;;;5073881;28;20393;-54
2022/04/29 09:02:29;;;;;;;17.37;10.50;;;;;;;;;;5070832;28;20403;-54
2022/04/29 09:04:59;;;;;;;15.97;10.47;;;;;;;;;;5073410;28;20462;-55
2022/04/29 09:07:43;;;;;;;15.63;9.83;;;;;;;;;;5073058;28;20434;-55
2022/04/29 09:10:09;;;;;;;18.80;10.13;;;;;;;;;;5072432;28;20427;-54
2022/04/29 09:12:35;;;;;;;15.73;10.03;;;;;;;;;;5072415;28;20810;-55
2022/04/29 09:15:14;;;;;;;15.00;8.83;;;;;;;;;;5072906;28;20449;-54
2022/04/29 09:17:44;;;;;;;16.93;9.13;;;;;;;;;;5073097;28;20465;-54
2022/04/29 09:20:16;;;;;;;12.17;8.87;;;;;;;;;;5072951;28;20385;-55
2022/04/29 09:22:43;;;;;;;14.73;10.10;;;;;;;;;;5072154;28;20390;-54
2022/04/29 09:25:09;;;;;;;11.50;8.40;;;;;;;;;;5073129;28;20407;-54
2022/04/29 09:27:53;;;;;;;15.20;9.00;;;;;;;;;;5072711;28;20455;-55
2022/04/29 09:30:41;;;;;;;17.47;9.70;;;;;;;;;;5072982;28;20375;-54
2022/04/29 09:33:18;;;;;;;13.57;8.93;;;;;;;;;;5072264;28;20383;-55
2022/04/29 09:35:45;;;;;;;14.60;8.33;;;;;;;;;;5072691;28;20392;-55
2022/04/29 09:40:58;;;;;;;20.80;9.23;;;;;;;;;;5072323;28;20391;-55
2022/04/29 09:43:34;;;;;;;14.87;9.70;;;;;;;;;;5072437;28;20775;-54
2022/04/29 09:46:12;;;;;;;18.13;10.57;;;;;;;;;;5072522;28;20488;-54
2022/04/29 09:48:56;;;;;;;14.80;10.07;;;;;;;;;;5072353;28;20885;-54
2022/04/29 09:51:58;;;;;;;19.93;10.73;;;;;;;;;;5071584;28;20423;-54
2022/04/29 09:54:28;;;;;;;15.43;10.23;;;;;;;;;;5050060;28;20936;-55
2022/04/29 09:57:05;;;;;;;23.20;10.80;;;;;;;;;;5068404;28;20433;-55
2022/04/29 09:59:42;;;;;;;15.53;8.53;;;;;;;;;;5072375;28;20776;-55
2022/04/29 10:02:09;;;;;;;17.07;10.43;;;;;;;;;;5071132;28;20902;-55
2022/04/29 10:04:36;;;;;;;18.13;9.27;;;;;;;;;;5072191;28;20957;-54
2022/04/29 10:07:04;;;;;;;20.87;10.50;;;;;;;;;;5071995;28;20452;-55
2022/04/29 10:09:34;;;;;;;14.57;10.10;;;;;;;;;;5072081;28;20400;-54
2022/04/29 10:12:01;;;;;;;17.80;10.33;;;;;;;;;;5071457;28;20490;-54
2022/04/29 10:14:28;;;;;;;20.70;10.80;;;;;;;;;;5072113;28;20407;-55
2022/04/29 10:22:32;;;;;;;17.50;9.13;;;;;;;;;;5071505;28;20490;-55
2022/04/29 10:24:58;;;;;;;16.87;9.10;;;;;;;;;;5072036;28;20371;-55
2022/04/29 10:27:25;;;;;;;13.07;8.33;;;;;;;;;;5071878;28;20427;-55
2022/04/29 10:29:51;;;;;;;11.90;8.00;;;;;;;;;;5071957;28;20909;-54
2022/04/29 10:32:17;;;;;;;18.30;8.30;;;;;;;;;;5071167;28;20400;-54
2022/04/29 10:34:43;;;;;;;11.07;7.90;;;;;;;;;;5071640;28;20526;-54
2022/04/29 10:37:15;;;;;;;12.83;8.13;;;;;;;;;;5071746;28;20401;-55
2022/04/29 10:39:43;;;;;;;15.17;9.33;;;;;;;;;;5071740;28;20379;-54
2022/04/29 10:42:09;;;;;;;11.30;8.90;;;;;;;;;;5071107;28;20425;-55
2022/04/29 10:44:47;;;;;;;13.23;8.97;;;;;;;;;;5071644;28;20409;-55
2022/04/29 10:47:41;;;;;;;13.90;9.43;;;;;;;;;;5071729;28;20802;-54
2022/04/29 10:50:25;;;;;;;17.70;9.07;;;;;;;;;;5071754;28;20452;-55
2022/04/29 10:53:03;;;;;;;10.53;8.60;;;;;;;;;;5070899;28;20491;-54
2022/04/29 10:55:29;;;;;;;12.47;9.80;;;;;;;;;;5071744;28;20483;-55
2022/04/29 10:58:01;;;;;;;13.13;9.10;;;;;;;;;;5071621;28;20406;-55
2022/04/29 11:00:28;;;;;;;12.90;8.80;;;;;;;;;;5071581;28;20403;-55
2022/04/29 11:02:54;;;;;;;16.83;9.60;;;;;;;;;;5070946;28;20398;-55
2022/04/29 11:05:37;;;;;;;12.20;8.20;;;;;;;;;;5071427;28;20403;-55
2022/04/29 11:08:09;;;;;;;12.60;8.10;;;;;;;;;;5071613;28;20404;-55
2022/04/29 11:10:54;;;;;;;10.17;8.43;;;;;;;;;;5071437;28;20384;-54
2022/04/29 11:13:23;;;;;;;15.13;8.20;;;;;;;;;;5071448;28;20420;-55
2022/04/29 11:15:51;;;;;;;12.60;8.00;;;;;;;;;;5071321;28;20392;-55
2022/04/29 11:18:19;;;;;;;10.83;7.23;;;;;;;;;;5071368;28;20904;-54
2022/04/29 11:20:46;;;;;;;12.63;8.47;;;;;;;;;;5071043;28;20411;-54
2022/04/29 11:26:02;;;;;;;14.10;7.30;;;;;;;;;;5071353;28;20505;-54
2022/04/29 11:28:30;;;;;;;12.57;8.63;;;;;;;;;;5071232;28;20397;-54
2022/04/29 11:31:03;;;;;;;14.27;7.87;;;;;;;;;;5070679;28;20408;-54
2022/04/29 11:33:29;;;;;;;10.40;7.77;;;;;;;;;;5072508;28;20425;-55
2022/04/29 11:36:01;;;;;;;8.00;7.13;;;;;;;;;;5075066;28;20428;-55
2022/04/29 11:38:30;;;;;;;14.03;8.07;;;;;;;;;;5075009;28;20409;-54
2022/04/29 11:40:56;;;;;;;15.37;8.10;;;;;;;;;;5072652;28;20552;-53
2022/04/29 11:43:22;;;;;;;10.87;8.53;;;;;;;;;;5074838;28;20992;-55
2022/04/29 11:45:58;;;;;;;13.43;7.90;;;;;;;;;;5075910;28;20405;-55
2022/04/29 11:48:24;;;;;;;11.20;7.87;;;;;;;;;;5074760;28;20407;-55
2022/04/29 11:50:50;;;;;;;13.93;7.13;;;;;;;;;;5074756;28;20564;-54
2022/04/29 11:53:17;;;;;;;16.97;7.17;;;;;;;;;;5074663;28;20434;-55
2022/04/29 11:55:50;;;;;;;12.90;7.23;;;;;;;;;;5074666;28;20400;-55
2022/04/29 11:58:16;;;;;;;10.37;7.80;;;;;;;;;;5074735;28;20392;-53
2022/04/29 12:00:48;;;;;;;14.53;8.03;;;;;;;;;;5074504;28;20397;-56
2022/04/29 12:03:18;;;;;;;11.13;6.80;;;;;;;;;;5074443;28;20464;-56
2022/04/29 12:05:44;;;;;;;8.60;7.60;;;;;;;;;;5072872;28;20749;-54
2022/04/29 12:08:11;;;;;;;9.80;6.87;;;;;;;;;;5072561;28;20481;-55
2022/04/29 12:10:37;;;;;;;13.50;8.43;;;;;;;;;;5072655;28;20401;-55
2022/04/29 12:13:05;;;;;;;20.33;7.50;;;;;;;;;;5072806;28;20424;-54
2022/04/29 12:15:32;;;;;;;9.20;7.47;;;;;;;;;;5071606;28;20499;-55
2022/04/29 12:18:02;;;;;;;10.57;6.77;;;;;;;;;;5074196;28;20399;-55
2022/04/29 12:20:28;;;;;;;17.37;9.27;;;;;;;;;;5074220;28;20412;-56
2022/04/29 12:22:54;;;;;;;14.03;8.03;;;;;;;;;;5073597;28;20464;-55
2022/04/29 12:25:20;;;;;;;10.83;7.40;;;;;;;;;;5074188;28;20436;-56
2022/04/29 12:27:46;;;;;;;10.57;8.20;;;;;;;;;;5074090;28;20523;-55
2022/04/29 12:36:07;;;;;;;12.10;7.83;;;;;;;;;;5074320;28;20453;-55
2022/04/29 12:38:38;;;;;;;10.80;8.50;;;;;;;;;;5074107;28;20851;-54
2022/04/29 12:41:23;;;;;;;10.80;7.10;;;;;;;;;;5071931;28;20450;-54
2022/04/29 12:43:50;;;;;;;10.17;7.63;;;;;;;;;;5073673;28;20441;-55
2022/04/29 12:46:18;;;;;;;13.77;8.37;;;;;;;;;;5073429;28;20480;-54
2022/04/29 12:48:45;;;;;;;19.73;8.90;;;;;;;;;;5073792;28;20430;-55
2022/04/29 12:51:32;;;;;;;13.90;8.77;;;;;;;;;;5073016;28;20487;-54
2022/04/29 12:53:59;;;;;;;11.20;8.00;;;;;;;;;;5073531;28;20454;-54
2022/04/29 12:56:30;;;;;;;16.70;8.43;;;;;;;;;;5073659;28;20439;-55
2022/04/29 12:58:56;;;;;;;17.80;8.30;;;;;;;;;;5073432;28;20767;-54
2022/04/29 13:01:23;;;;;;;15.00;7.83;;;;;;;;;;5072916;28;20919;-55
2022/04/29 13:03:50;;;;;;;11.73;9.30;;;;;;;;;;5073335;28;20467;-55
2022/04/29 13:06:17;;;;;;;11.87;7.90;;;;;;;;;;5073219;28;20884;-55
2022/04/29 13:08:45;;;;;;;13.53;8.90;;;;;;;;;;5073260;28;20887;-55
2022/04/29 13:11:15;;;;;;;14.23;8.13;;;;;;;;;;5071665;28;20408;-54
2022/04/29 13:13:41;;;;;;;11.57;8.37;;;;;;;;;;5066321;28;20928;-55
2022/04/29 13:16:07;;;;;;;15.93;9.67;;;;;;;;;;5073192;28;20943;-55
2022/04/29 13:18:33;;;;;;;10.13;9.03;;;;;;;;;;5071790;28;20404;-55
2022/04/29 13:21:00;;;;;;;13.20;10.00;;;;;;;;;;5071109;28;20483;-55
2022/04/29 13:23:27;;;;;;;14.03;9.80;;;;;;;;;;5072908;28;20559;-55
2022/04/29 13:25:56;;;;;;;17.17;9.23;;;;;;;;;;5072844;28;20966;-55
2022/04/29 13:28:22;;;;;;;15.57;9.83;;;;;;;;;;5072737;28;20813;-54
2022/04/29 13:30:48;;;;;;;13.67;9.40;;;;;;;;;;5072298;28;20770;-54
2022/04/29 13:33:14;;;;;;;17.37;10.47;;;;;;;;;;5072748;28;20419;-55
2022/04/29 13:35:41;;;;;;;13.00;10.20;;;;;;;;;;5072816;28;20393;-55
2022/04/29 13:38:07;;;;;;;12.67;9.53;;;;;;;;;;5072730;28;20949;-55
2022/04/29 13:40:33;;;;;;;13.03;9.50;;;;;;;;;;5072555;28;21064;-55
2022/04/29 13:43:00;;;;;;;13.17;9.70;;;;;;;;;;5072069;28;20433;-54
2022/04/29 13:45:25;;;;;;;14.10;9.93;;;;;;;;;;5072641;28;20404;-55
2022/04/29 13:47:52;;;;;;;16.83;10.70;;;;;;;;;;5072360;28;20885;-54
2022/04/29 13:50:18;;;;;;;13.23;10.30;;;;;;;;;;5072476;28;20405;-55
2022/04/29 13:55:30;;;;;;;15.80;10.50;;;;;;;;;;5072330;28;20369;-54
2022/04/29 13:57:56;;;;;;;14.60;10.40;;;;;;;;;;5071806;28;20416;-55
2022/04/29 14:00:23;;;;;;;17.90;10.20;;;;;;;;;;5072058;28;20468;-55
2022/04/29 14:02:52;;;;;;;18.33;11.37;;;;;;;;;;5071420;28;20894;-55
2022/04/29 14:05:18;;;;;;;12.30;11.10;;;;;;;;;;5072354;28;20414;-54
2022/04/29 14:07:44;;;;;;;15.83;11.60;;;;;;;;;;5072181;28;20453;-55
2022/04/29 14:10:11;;;;;;;14.10;11.40;;;;;;;;;;5072237;28;20395;-55
2022/04/29 14:12:37;;;;;;;14.23;10.53;;;;;;;;;;5071460;28;20427;-55
2022/04/29 14:15:07;;;;;;;13.30;11.27;;;;;;;;;;5072146;28;20365;-54
2022/04/29 14:17:33;;;;;;;18.00;11.30;;;;;;;;;;5072387;28;20410;-54
2022/04/29 14:19:59;;;;;;;17.50;9.53;;;;;;;;;;5072133;28;20413;-55
2022/04/29 14:22:25;;;;;;;14.80;11.57;;;;;;;;;;5071389;28;20422;-55
2022/04/29 14:24:51;;;;;;;12.40;10.63;;;;;;;;;;5072119;28;20384;-54
2022/04/29 14:27:20;;;;;;;14.17;10.60;;;;;;;;;;5072029;28;20477;-54
2022/04/29 14:29:48;;;;;;;21.93;10.70;;;;;;;;;;5071758;28;20903;-54
2022/04/29 14:32:14;;;;;;;16.27;11.33;;;;;;;;;;5071279;28;20424;-55
2022/04/29 14:34:41;;;;;;;27.17;11.47;;;;;;;;;;5071968;28;20398;-55
2022/04/29 14:37:07;;;;;;;16.77;10.70;;;;;;;;;;5068940;28;20483;-54
2022/04/29 14:39:33;;;;;;;18.17;11.40;;;;;;;;;;5055448;28;20416;-54
2022/04/29 14:41:59;;;;;;;17.63;11.20;;;;;;;;;;5051092;28;20495;-54
2022/04/29 14:44:26;;;;;;;15.40;11.03;;;;;;;;;;5055336;28;20886;-55
2022/04/29 14:46:52;;;;;;;15.20;9.80;;;;;;;;;;5068648;28;20436;-56
2022/04/29 14:49:19;;;;;;;13.80;9.73;;;;;;;;;;5053059;28;20472;-54
2022/04/29 14:51:45;;;;;;;10.93;9.67;;;;;;;;;;5052920;28;20446;-55
2022/04/29 14:54:12;;;;;;;11.87;10.30;;;;;;;;;;5052935;28;20370;-55
2022/04/29 14:56:41;;;;;;;15.87;11.10;;;;;;;;;;5060512;28;20440;-53
2022/04/29 14:59:07;;;;;;;17.30;10.27;;;;;;;;;;5074373;28;20384;-53
2022/04/29 15:01:33;;;;;;;13.40;9.40;;;;;;;;;;5071384;28;20381;-53
2022/04/29 15:03:59;;;;;;;14.70;9.90;;;;;;;;;;5069642;28;20437;-55
2022/04/29 15:06:25;;;;;;;18.80;10.20;;;;;;;;;;5070477;28;20432;-52
2022/04/29 15:15:34;;;;;;;14.93;10.10;;;;;;;;;;5071337;28;20379;-52